createdAt,value
2023-02-17T00:04:52.236Z,23.20
2023-02-17T00:09:59.422Z,23.27
2023-02-17T00:15:06.633Z,23.26
2023-02-17T00:20:13.814Z,23.26
2023-02-17T00:25:20.992Z,23.57
2023-02-17T00:30:28.318Z,23.52
2023-02-17T00:35:35.462Z,23.53
2023-02-17T00:40:42.621Z,23.65
2023-02-17T00:45:49.915Z,23.72
2023-02-17T00:50:57.106Z,23.79
2023-02-17T00:56:04.641Z,23.90
2023-02-17T01:01:11.510Z,24.00
2023-02-17T01:06:18.655Z,24.07
2023-02-17T01:11:25.846Z,24.09
2023-02-17T01:16:33.050Z,24.16
2023-02-17T01:21:40.266Z,24.26
2023-02-17T01:26:47.495Z,24.34
2023-02-17T01:31:54.744Z,24.46
2023-02-17T01:37:01.871Z,24.56
2023-02-17T01:42:09.046Z,24.66
2023-02-17T01:47:16.342Z,24.76
2023-02-17T01:52:23.484Z,24.86
2023-02-17T01:57:30.689Z,24.96
2023-02-17T02:02:38.231Z,25.05
2023-02-17T02:07:45.198Z,25.18
2023-02-17T02:12:52.464Z,25.25
2023-02-17T02:17:59.678Z,25.29
2023-02-17T02:23:06.949Z,25.42
2023-02-17T02:28:14.135Z,25.55
2023-02-17T02:33:21.384Z,25.64
2023-02-17T02:38:28.597Z,25.71
2023-02-17T02:43:35.887Z,25.77
2023-02-17T02:48:43.183Z,25.84
2023-02-17T02:53:50.368Z,25.88
2023-02-17T02:58:57.521Z,25.96
2023-02-17T03:04:05.013Z,25.99
2023-02-17T03:09:11.955Z,26.04
2023-02-17T03:14:19.180Z,26.08
2023-02-17T03:19:26.375Z,26.14
2023-02-17T03:24:33.542Z,26.17
2023-02-17T03:29:40.722Z,26.21
2023-02-17T03:34:47.904Z,26.24
2023-02-17T03:39:55.123Z,26.27
2023-02-17T03:45:02.417Z,26.32
2023-02-17T03:50:09.687Z,26.38
2023-02-17T03:55:16.842Z,26.47
2023-02-17T04:00:24.028Z,26.53
2023-02-17T04:05:31.225Z,26.56
2023-02-17T04:10:38.412Z,26.61
2023-02-17T04:15:45.625Z,26.61
2023-02-17T04:20:52.808Z,26.67
2023-02-17T04:25:59.935Z,26.70
2023-02-17T04:31:07.281Z,26.73
2023-02-17T04:36:14.343Z,26.75
2023-02-17T04:41:21.528Z,26.78
2023-02-17T04:46:28.843Z,26.83
2023-02-17T04:51:35.981Z,26.83
2023-02-17T04:56:43.145Z,26.88
2023-02-17T05:01:50.351Z,26.93
2023-02-17T05:06:57.575Z,26.89
2023-02-17T05:12:04.776Z,26.94
2023-02-17T05:17:12.011Z,26.95
2023-02-17T05:22:19.210Z,26.97
2023-02-17T05:27:26.357Z,26.82
2023-02-17T05:32:33.615Z,26.93
2023-02-17T05:37:40.852Z,26.97
2023-02-17T05:42:48.014Z,27.00
2023-02-17T05:47:55.209Z,26.71
2023-02-17T05:53:02.503Z,26.86
2023-02-17T05:58:09.632Z,27.08
2023-02-17T06:03:16.922Z,27.12
2023-02-17T06:08:24.104Z,27.13
2023-02-17T06:13:31.349Z,27.21
2023-02-17T06:18:38.615Z,27.17
2023-02-17T06:23:45.841Z,27.13
2023-02-17T06:28:53.060Z,27.23
2023-02-17T06:34:00.280Z,27.24
2023-02-17T06:39:07.505Z,27.27
2023-02-17T06:44:14.631Z,27.29
2023-02-17T06:49:21.878Z,27.37
2023-02-17T06:54:29.132Z,27.43
2023-02-17T06:59:36.280Z,27.46
2023-02-17T07:04:43.485Z,27.58
2023-02-17T07:09:50.678Z,27.63
2023-02-17T07:14:57.897Z,27.68
2023-02-17T07:20:05.149Z,27.69
2023-02-17T07:25:12.369Z,27.72
2023-02-17T07:30:19.603Z,27.72
2023-02-17T07:35:26.784Z,27.74
2023-02-17T07:40:34.036Z,27.73
2023-02-17T07:45:41.241Z,27.74
2023-02-17T07:50:48.510Z,27.76
2023-02-17T07:55:55.739Z,27.69
2023-02-17T08:01:02.934Z,27.62
2023-02-17T08:06:10.123Z,27.73
2023-02-17T08:11:17.389Z,27.74
2023-02-17T08:16:24.580Z,27.65
2023-02-17T08:21:31.759Z,29.16
2023-02-17T08:26:39.042Z,28.11
2023-02-17T08:31:46.335Z,28.21
2023-02-17T08:36:53.384Z,28.14
2023-02-17T08:42:00.694Z,28.20
2023-02-17T08:47:07.912Z,28.19
2023-02-17T08:52:15.046Z,28.15
2023-02-17T08:57:22.263Z,28.25
2023-02-17T09:02:29.406Z,28.37
2023-02-17T09:07:36.602Z,28.38
2023-02-17T09:12:43.818Z,28.33
2023-02-17T09:17:50.937Z,28.20
2023-02-17T09:22:58.165Z,28.17
2023-02-17T09:28:05.342Z,28.15
2023-02-17T09:33:12.509Z,28.18
2023-02-17T09:38:19.726Z,28.17
2023-02-17T09:43:26.972Z,28.21
2023-02-17T09:48:34.095Z,28.15
2023-02-17T09:53:41.267Z,28.14
2023-02-17T09:58:48.477Z,28.15
2023-02-17T10:03:55.656Z,28.12
2023-02-17T10:09:02.892Z,28.11
2023-02-17T10:14:10.094Z,28.12
2023-02-17T10:19:17.201Z,28.10
2023-02-17T10:24:24.459Z,28.14
2023-02-17T10:29:31.678Z,28.08
2023-02-17T10:34:38.719Z,28.09
2023-02-17T10:39:45.944Z,28.05
2023-02-17T10:44:53.234Z,28.05
2023-02-17T10:50:00.395Z,28.00
2023-02-17T10:55:21.967Z,28.00
2023-02-17T11:00:14.794Z,27.99
2023-02-17T11:05:21.933Z,27.95
2023-02-17T11:10:29.130Z,27.92
2023-02-17T11:15:51.312Z,27.88
2023-02-17T11:21:03.364Z,27.86
2023-02-17T11:26:10.625Z,27.83
2023-02-17T11:31:17.978Z,27.80
2023-02-17T11:36:25.141Z,27.76
2023-02-17T11:41:32.334Z,27.82
2023-02-17T11:46:39.638Z,27.88
2023-02-17T11:51:46.824Z,27.93
2023-02-17T11:56:54.078Z,27.92
2023-02-17T12:02:01.358Z,27.91
2023-02-17T12:07:08.542Z,27.91
2023-02-17T12:12:15.729Z,27.90
2023-02-17T12:17:22.930Z,27.89
2023-02-17T12:22:30.148Z,27.91
2023-02-17T12:27:37.253Z,27.91
2023-02-17T12:32:44.454Z,27.88
2023-02-17T12:37:51.638Z,27.92
2023-02-17T12:42:58.822Z,27.90
2023-02-17T12:48:06.044Z,27.89
2023-02-17T12:53:13.204Z,27.92
2023-02-17T12:58:20.365Z,27.97
2023-02-17T13:03:27.664Z,28.04
2023-02-17T13:08:34.851Z,28.14
2023-02-17T13:13:42.081Z,28.17
2023-02-17T13:18:50.465Z,28.20
2023-02-17T13:23:56.485Z,28.26
2023-02-17T13:29:03.685Z,28.21
2023-02-17T13:34:10.890Z,28.27
2023-02-17T13:39:18.060Z,28.26
2023-02-17T13:44:25.234Z,28.28
2023-02-17T13:49:32.441Z,28.28
2023-02-17T13:54:39.606Z,28.26
2023-02-17T13:59:46.858Z,28.29
2023-02-17T14:04:55.108Z,28.32
2023-02-17T14:10:01.245Z,28.36
2023-02-17T14:15:08.534Z,28.37
2023-02-17T14:20:15.761Z,28.34
2023-02-17T14:25:22.901Z,28.35
2023-02-17T14:30:30.183Z,28.35
2023-02-17T14:35:37.308Z,28.38
2023-02-17T14:40:44.748Z,28.40
2023-02-17T14:45:52.247Z,28.40
2023-02-17T14:50:59.550Z,28.38
2023-02-17T14:56:07.108Z,28.43
2023-02-17T15:01:13.918Z,28.43
2023-02-17T15:06:21.166Z,28.47
2023-02-17T15:11:28.393Z,28.48
2023-02-17T15:16:35.724Z,28.51
2023-02-17T15:21:42.872Z,28.50
2023-02-17T15:26:50.316Z,28.49
2023-02-17T15:31:57.977Z,28.45
2023-02-17T15:37:05.158Z,28.45
2023-02-17T15:42:12.463Z,28.40
2023-02-17T15:47:19.947Z,28.41
2023-02-17T15:52:27.376Z,28.41
2023-02-17T15:57:34.549Z,28.44
2023-02-17T16:02:41.824Z,28.38
2023-02-17T16:07:49.029Z,28.38
2023-02-17T16:12:56.482Z,28.42
2023-02-17T16:18:03.784Z,28.52
2023-02-17T16:23:11.322Z,28.60
2023-02-17T16:28:18.737Z,28.52
2023-02-17T16:33:33.178Z,28.60
2023-02-17T16:38:38.225Z,28.65
2023-02-17T16:43:45.754Z,28.67
2023-02-17T16:48:53.170Z,28.91
2023-02-17T16:54:00.575Z,28.96
2023-02-17T16:59:07.681Z,28.93
2023-02-17T17:04:15.072Z,29.00
2023-02-17T17:09:23.028Z,28.98
2023-02-17T17:14:30.141Z,29.01
2023-02-17T17:19:37.611Z,29.01
2023-02-17T17:25:00.223Z,28.98
2023-02-17T17:30:07.668Z,29.12
2023-02-17T17:35:15.611Z,29.65
2023-02-17T17:40:23.051Z,29.63
2023-02-17T17:45:30.641Z,29.66
2023-02-17T17:50:38.355Z,29.20
2023-02-17T17:55:45.986Z,29.08
2023-02-17T18:00:53.680Z,29.05
2023-02-17T18:06:01.306Z,28.97
2023-02-17T18:11:08.942Z,28.78
2023-02-17T18:16:16.658Z,28.66
2023-02-17T18:21:24.143Z,28.56
2023-02-17T18:26:31.790Z,28.48
2023-02-17T18:31:39.538Z,28.63
2023-02-17T18:36:46.984Z,28.51
2023-02-17T18:41:54.671Z,28.51
2023-02-17T18:47:02.226Z,28.28
2023-02-17T18:52:10.410Z,28.28
2023-02-17T18:57:17.972Z,28.17
2023-02-17T19:02:25.409Z,28.07
2023-02-17T19:07:32.805Z,27.95
2023-02-17T19:12:40.348Z,27.89
2023-02-17T19:17:47.890Z,27.77
2023-02-17T19:22:55.517Z,27.65
2023-02-17T19:28:03.149Z,27.58
2023-02-17T19:33:10.832Z,28.30
2023-02-17T19:38:21.852Z,28.21
2023-02-17T19:43:31.723Z,28.33
2023-02-17T19:48:38.993Z,28.56
2023-02-17T19:53:46.182Z,28.25
2023-02-17T19:58:53.652Z,28.53
2023-02-17T20:04:00.927Z,28.79
2023-02-17T20:09:08.456Z,28.79
2023-02-17T20:14:16.091Z,28.82
2023-02-17T20:19:23.673Z,28.67
2023-02-17T20:24:31.182Z,28.47
2023-02-17T20:29:38.931Z,28.33
2023-02-17T20:34:46.240Z,28.03
2023-02-17T20:39:53.831Z,27.99
2023-02-17T20:45:01.976Z,27.70
2023-02-17T20:50:09.468Z,27.80
2023-02-17T20:55:17.105Z,27.74
2023-02-17T21:00:24.730Z,27.53
2023-02-17T21:05:32.316Z,27.55
2023-02-17T21:10:39.668Z,27.57
2023-02-17T21:15:47.467Z,27.62
2023-02-17T21:20:54.848Z,27.39
2023-02-17T21:26:02.279Z,27.17
2023-02-17T21:31:09.997Z,27.21
2023-02-17T21:36:17.317Z,27.48
2023-02-17T21:41:25.106Z,27.36
2023-02-17T21:46:32.410Z,27.36
2023-02-17T21:51:39.554Z,27.18
2023-02-17T21:56:47.013Z,27.19
2023-02-17T22:01:54.451Z,27.24
2023-02-17T22:07:01.644Z,27.26
2023-02-17T22:12:08.842Z,27.39
2023-02-17T22:17:16.071Z,27.18
2023-02-17T22:22:23.254Z,27.16
2023-02-17T22:27:30.456Z,27.06
2023-02-17T22:32:37.685Z,27.06
2023-02-17T22:37:44.810Z,27.37
2023-02-17T22:42:51.993Z,27.42
2023-02-17T22:47:59.205Z,27.16
2023-02-17T22:53:06.366Z,27.42
2023-02-17T22:58:13.578Z,27.20
2023-02-17T23:03:20.809Z,26.97
2023-02-17T23:08:27.932Z,26.82
2023-02-17T23:13:35.195Z,26.82
2023-02-17T23:18:42.450Z,26.85
2023-02-17T23:23:49.579Z,26.75
2023-02-17T23:28:56.752Z,26.70
2023-02-17T23:34:03.974Z,26.58
2023-02-17T23:39:11.137Z,26.65
2023-02-17T23:44:18.328Z,26.59
2023-02-17T23:49:25.559Z,26.60
2023-02-17T23:54:32.671Z,26.65
2023-02-17T23:59:39.852Z,26.79
